sensor_id;sensor_type;location;lat;lon;timestamp;temperature;humidity
5248;DHT22;2644;52.420;13.580;2022-09-01T00:00:53;15.60;99.90
5248;DHT22;2644;52.420;13.580;2022-09-01T00:01:56;15.60;99.90
5248;DHT22;2644;52.420;13.580;2022-09-01T00:02:59;15.60;99.90
5248;DHT22;2644;52.420;13.580;2022-09-01T00:04:02;15.60;99.90
5248;DHT22;2644;52.420;13.580;2022-09-01T00:05:07;15.70;99.90
5248;DHT22;2644;52.420;13.580;2022-09-01T00:06:09;15.60;99.90
5248;DHT22;2644;52.420;13.580;2022-09-01T00:07:13;15.60;99.90
5248;DHT22;2644;52.420;13.580;2022-09-01T00:08:15;15.70;99.90
5248;DHT22;2644;52.420;13.580;2022-09-01T00:09:21;15.60;99.90
5248;DHT22;2644;52.420;13.580;2022-09-01T00:10:23;15.60;99.90
5248;DHT22;2644;52.420;13.580;2022-09-01T00:11:28;15.60;99.90
5248;DHT22;2644;52.420;13.580;2022-09-01T00:12:30;15.70;99.90
5248;DHT22;2644;52.420;13.580;2022-09-01T00:13:33;15.70;99.90
5248;DHT22;2644;52.420;13.580;2022-09-01T00:14:38;15.60;99.90
5248;DHT22;2644;52.420;13.580;2022-09-01T00:15:42;15.60;99.90
5248;DHT22;2644;52.420;13.580;2022-09-01T00:16:44;15.60;99.90
5248;DHT22;2644;52.420;13.580;2022-09-01T00:17:53;15.60;99.90
5248;DHT22;2644;52.420;13.580;2022-09-01T00:18:55;15.60;99.90
5248;DHT22;2644;52.420;13.580;2022-09-01T00:19:58;15.60;99.90
5248;DHT22;2644;52.420;13.580;2022-09-01T00:21:02;15.60;99.90
5248;DHT22;2644;52.420;13.580;2022-09-01T00:22:06;15.60;99.90
5248;DHT22;2644;52.420;13.580;2022-09-01T00:23:08;15.60;99.90
5248;DHT22;2644;52.420;13.580;2022-09-01T00:24:13;15.60;99.90
5248;DHT22;2644;52.420;13.580;2022-09-01T00:25:17;15.60;99.90
5248;DHT22;2644;52.420;13.580;2022-09-01T00:26:22;15.60;99.90
5248;DHT22;2644;52.420;13.580;2022-09-01T00:27:24;15.60;99.90
5248;DHT22;2644;52.420;13.580;2022-09-01T00:28:32;15.60;99.90
5248;DHT22;2644;52.420;13.580;2022-09-01T00:29:34;15.60;99.90
5248;DHT22;2644;52.420;13.580;2022-09-01T00:30:37;15.50;99.90
5248;DHT22;2644;52.420;13.580;2022-09-01T00:31:40;15.60;99.90
5248;DHT22;2644;52.420;13.580;2022-09-01T00:32:43;15.60;99.90
5248;DHT22;2644;52.420;13.580;2022-09-01T00:33:48;15.60;99.90
5248;DHT22;2644;52.420;13.580;2022-09-01T00:34:51;15.60;99.90
5248;DHT22;2644;52.420;13.580;2022-09-01T00:35:53;15.50;99.90
5248;DHT22;2644;52.420;13.580;2022-09-01T00:36:58;15.60;99.90
5248;DHT22;2644;52.420;13.580;2022-09-01T00:38:00;15.50;99.90
5248;DHT22;2644;52.420;13.580;2022-09-01T00:39:04;15.50;99.90
5248;DHT22;2644;52.420;13.580;2022-09-01T00:40:08;15.50;99.90
5248;DHT22;2644;52.420;13.580;2022-09-01T00:41:13;15.50;99.90
5248;DHT22;2644;52.420;13.580;2022-09-01T00:42:15;15.50;99.90
5248;DHT22;2644;52.420;13.580;2022-09-01T00:43:22;15.60;99.90
5248;DHT22;2644;52.420;13.580;2022-09-01T00:44:25;15.60;99.90
5248;DHT22;2644;52.420;13.580;2022-09-01T00:45:32;15.50;99.90
5248;DHT22;2644;52.420;13.580;2022-09-01T00:46:37;15.50;99.90
5248;DHT22;2644;52.420;13.580;2022-09-01T00:47:51;15.50;99.90
5248;DHT22;2644;52.420;13.580;2022-09-01T00:48:57;15.50;99.90
5248;DHT22;2644;52.420;13.580;2022-09-01T00:50:02;15.50;99.90
5248;DHT22;2644;52.420;13.580;2022-09-01T00:51:06;15.50;99.90
5248;DHT22;2644;52.420;13.580;2022-09-01T00:52:14;15.50;99.90
5248;DHT22;2644;52.420;13.580;2022-09-01T00:53:17;15.50;99.90
5248;DHT22;2644;52.420;13.580;2022-09-01T00:54:22;15.50;99.90
5248;DHT22;2644;52.420;13.580;2022-09-01T00:55:30;15.50;99.90
5248;DHT22;2644;52.420;13.580;2022-09-01T00:56:34;15.60;99.90
5248;DHT22;2644;52.420;13.580;2022-09-01T00:57:38;15.60;99.90
5248;DHT22;2644;52.420;13.580;2022-09-01T00:58:41;15.50;99.90
5248;DHT22;2644;52.420;13.580;2022-09-01T00:59:46;15.50;99.90
5248;DHT22;2644;52.420;13.580;2022-09-01T01:00:52;15.50;99.90
5248;DHT22;2644;52.420;13.580;2022-09-01T01:01:54;15.50;99.90
5248;DHT22;2644;52.420;13.580;2022-09-01T01:02:58;15.50;99.90
5248;DHT22;2644;52.420;13.580;2022-09-01T01:04:01;15.40;99.90
5248;DHT22;2644;52.420;13.580;2022-09-01T01:05:05;15.40;99.90
5248;DHT22;2644;52.420;13.580;2022-09-01T01:06:12;15.50;99.90
5248;DHT22;2644;52.420;13.580;2022-09-01T01:07:19;15.40;99.90
5248;DHT22;2644;52.420;13.580;2022-09-01T01:08:27;15.50;99.90
5248;DHT22;2644;52.420;13.580;2022-09-01T01:09:39;15.40;99.90
5248;DHT22;2644;52.420;13.580;2022-09-01T01:10:42;15.50;99.90
5248;DHT22;2644;52.420;13.580;2022-09-01T01:11:45;15.50;99.90
5248;DHT22;2644;52.420;13.580;2022-09-01T01:12:48;15.40;99.90
5248;DHT22;2644;52.420;13.580;2022-09-01T01:13:56;15.40;99.90
5248;DHT22;2644;52.420;13.580;2022-09-01T01:15:00;15.40;99.90
5248;DHT22;2644;52.420;13.580;2022-09-01T01:16:04;15.50;99.90
5248;DHT22;2644;52.420;13.580;2022-09-01T01:17:08;15.40;99.90
5248;DHT22;2644;52.420;13.580;2022-09-01T01:18:13;15.40;99.90
5248;DHT22;2644;52.420;13.580;2022-09-01T01:19:23;15.40;99.90
5248;DHT22;2644;52.420;13.580;2022-09-01T01:20:45;15.40;99.90
5248;DHT22;2644;52.420;13.580;2022-09-01T01:22:13;15.30;99.90
5248;DHT22;2644;52.420;13.580;2022-09-01T01:23:41;15.40;99.90
5248;DHT22;2644;52.420;13.580;2022-09-01T01:24:46;15.40;99.90
5248;DHT22;2644;52.420;13.580;2022-09-01T01:25:50;15.40;99.90
5248;DHT22;2644;52.420;13.580;2022-09-01T01:26:54;15.40;99.90
5248;DHT22;2644;52.420;13.580;2022-09-01T01:28:07;15.40;99.90
5248;DHT22;2644;52.420;13.580;2022-09-01T01:29:11;15.40;99.90
5248;DHT22;2644;52.420;13.580;2022-09-01T01:30:14;15.40;99.90
5248;DHT22;2644;52.420;13.580;2022-09-01T01:31:19;15.40;99.90
5248;DHT22;2644;52.420;13.580;2022-09-01T01:32:24;15.40;99.90
5248;DHT22;2644;52.420;13.580;2022-09-01T01:33:30;15.40;99.90
5248;DHT22;2644;52.420;13.580;2022-09-01T01:34:35;15.40;99.90
5248;DHT22;2644;52.420;13.580;2022-09-01T01:35:38;15.30;99.90
5248;DHT22;2644;52.420;13.580;2022-09-01T01:36:43;15.30;99.90
5248;DHT22;2644;52.420;13.580;2022-09-01T01:37:48;15.30;99.90
5248;DHT22;2644;52.420;13.580;2022-09-01T01:38:52;15.30;99.90
5248;DHT22;2644;52.420;13.580;2022-09-01T01:39:57;15.30;99.90
5248;DHT22;2644;52.420;13.580;2022-09-01T01:41:01;15.30;99.90
5248;DHT22;2644;52.420;13.580;2022-09-01T01:42:04;15.30;99.90
5248;DHT22;2644;52.420;13.580;2022-09-01T01:43:10;15.30;99.90
5248;DHT22;2644;52.420;13.580;2022-09-01T01:44:14;15.30;99.90
5248;DHT22;2644;52.420;13.580;2022-09-01T01:45:20;15.30;99.90
5248;DHT22;2644;52.420;13.580;2022-09-01T01:46:22;15.20;99.90
5248;DHT22;2644;52.420;13.580;2022-09-01T01:47:26;15.20;99.90
5248;DHT22;2644;52.420;13.580;2022-09-01T01:48:29;15.20;99.90
5248;DHT22;2644;52.420;13.580;2022-09-01T01:49:35;15.20;99.90
5248;DHT22;2644;52.420;13.580;2022-09-01T01:50:38;15.20;99.90
5248;DHT22;2644;52.420;13.580;2022-09-01T01:51:41;15.20;99.90
5248;DHT22;2644;52.420;13.580;2022-09-01T01:52:44;15.20;99.90
5248;DHT22;2644;52.420;13.580;2022-09-01T01:53:49;15.20;99.90
5248;DHT22;2644;52.420;13.580;2022-09-01T01:54:53;15.10;99.90
5248;DHT22;2644;52.420;13.580;2022-09-01T01:55:59;15.20;99.90
5248;DHT22;2644;52.420;13.580;2022-09-01T01:57:05;15.20;99.90
5248;DHT22;2644;52.420;13.580;2022-09-01T01:58:09;15.10;99.90
5248;DHT22;2644;52.420;13.580;2022-09-01T01:59:13;15.10;99.90
5248;DHT22;2644;52.420;13.580;2022-09-01T02:00:19;15.10;99.90
5248;DHT22;2644;52.420;13.580;2022-09-01T02:01:31;15.10;99.90
5248;DHT22;2644;52.420;13.580;2022-09-01T02:02:34;15.20;99.90
5248;DHT22;2644;52.420;13.580;2022-09-01T02:03:39;15.20;99.90
5248;DHT22;2644;52.420;13.580;2022-09-01T02:04:42;15.10;99.90
5248;DHT22;2644;52.420;13.580;2022-09-01T02:05:46;15.10;99.90
5248;DHT22;2644;52.420;13.580;2022-09-01T02:06:49;15.10;99.90
5248;DHT22;2644;52.420;13.580;2022-09-01T02:07:54;15.10;99.90
5248;DHT22;2644;52.420;13.580;2022-09-01T02:09:00;15.10;99.90
5248;DHT22;2644;52.420;13.580;2022-09-01T02:10:05;15.10;99.90
5248;DHT22;2644;52.420;13.580;2022-09-01T02:11:09;15.10;99.90
5248;DHT22;2644;52.420;13.580;2022-09-01T02:12:14;15.00;99.90
5248;DHT22;2644;52.420;13.580;2022-09-01T02:13:22;15.00;99.90
5248;DHT22;2644;52.420;13.580;2022-09-01T02:14:27;15.00;99.90
5248;DHT22;2644;52.420;13.580;2022-09-01T02:15:30;15.00;99.90
5248;DHT22;2644;52.420;13.580;2022-09-01T02:16:44;15.00;99.90
5248;DHT22;2644;52.420;13.580;2022-09-01T02:17:47;15.00;99.90
5248;DHT22;2644;52.420;13.580;2022-09-01T02:18:51;14.90;99.90
5248;DHT22;2644;52.420;13.580;2022-09-01T02:19:54;15.00;99.90
5248;DHT22;2644;52.420;13.580;2022-09-01T02:20:58;14.90;99.90
5248;DHT22;2644;52.420;13.580;2022-09-01T02:22:01;14.90;99.90
5248;DHT22;2644;52.420;13.580;2022-09-01T02:23:04;14.90;99.90
5248;DHT22;2644;52.420;13.580;2022-09-01T02:24:12;14.90;99.90
5248;DHT22;2644;52.420;13.580;2022-09-01T02:25:16;14.90;99.90
5248;DHT22;2644;52.420;13.580;2022-09-01T02:26:23;14.90;99.90
5248;DHT22;2644;52.420;13.580;2022-09-01T02:27:32;14.90;99.90
5248;DHT22;2644;52.420;13.580;2022-09-01T02:28:38;14.80;99.90
5248;DHT22;2644;52.420;13.580;2022-09-01T02:29:43;14.80;99.90
5248;DHT22;2644;52.420;13.580;2022-09-01T02:30:47;14.80;99.90
5248;DHT22;2644;52.420;13.580;2022-09-01T02:31:55;14.80;99.90
5248;DHT22;2644;52.420;13.580;2022-09-01T02:32:59;14.80;99.90
5248;DHT22;2644;52.420;13.580;2022-09-01T02:34:02;14.80;99.90
5248;DHT22;2644;52.420;13.580;2022-09-01T02:35:07;14.80;99.90
5248;DHT22;2644;52.420;13.580;2022-09-01T02:36:13;14.90;99.90
5248;DHT22;2644;52.420;13.580;2022-09-01T02:37:16;14.90;99.90
5248;DHT22;2644;52.420;13.580;2022-09-01T02:38:19;14.90;99.90
5248;DHT22;2644;52.420;13.580;2022-09-01T02:39:27;14.80;99.90
5248;DHT22;2644;52.420;13.580;2022-09-01T02:40:29;14.80;99.90
5248;DHT22;2644;52.420;13.580;2022-09-01T02:41:34;14.80;99.90
5248;DHT22;2644;52.420;13.580;2022-09-01T02:42:37;14.80;99.90
5248;DHT22;2644;52.420;13.580;2022-09-01T02:43:45;14.80;99.90
5248;DHT22;2644;52.420;13.580;2022-09-01T02:44:47;14.80;99.90
5248;DHT22;2644;52.420;13.580;2022-09-01T02:45:51;14.80;99.90
5248;DHT22;2644;52.420;13.580;2022-09-01T02:47:01;14.80;99.90
5248;DHT22;2644;52.420;13.580;2022-09-01T02:48:07;14.70;99.90
5248;DHT22;2644;52.420;13.580;2022-09-01T02:49:15;14.70;99.90
5248;DHT22;2644;52.420;13.580;2022-09-01T02:50:20;14.70;99.90
5248;DHT22;2644;52.420;13.580;2022-09-01T02:51:23;14.60;99.90
5248;DHT22;2644;52.420;13.580;2022-09-01T02:52:27;14.70;99.90
5248;DHT22;2644;52.420;13.580;2022-09-01T02:53:34;14.70;99.90
5248;DHT22;2644;52.420;13.580;2022-09-01T02:54:37;14.60;99.90
5248;DHT22;2644;52.420;13.580;2022-09-01T02:55:40;14.60;99.90
5248;DHT22;2644;52.420;13.580;2022-09-01T02:56:45;14.50;99.90
5248;DHT22;2644;52.420;13.580;2022-09-01T02:57:50;14.60;99.90
5248;DHT22;2644;52.420;13.580;2022-09-01T02:58:58;14.50;99.90
5248;DHT22;2644;52.420;13.580;2022-09-01T03:00:02;14.50;99.90
5248;DHT22;2644;52.420;13.580;2022-09-01T03:01:10;14.50;99.90
5248;DHT22;2644;52.420;13.580;2022-09-01T03:02:13;14.50;99.90
5248;DHT22;2644;52.420;13.580;2022-09-01T03:03:16;14.40;99.90
5248;DHT22;2644;52.420;13.580;2022-09-01T03:04:22;14.40;99.90
5248;DHT22;2644;52.420;13.580;2022-09-01T03:05:28;14.40;99.90
5248;DHT22;2644;52.420;13.580;2022-09-01T03:06:30;14.40;99.90
5248;DHT22;2644;52.420;13.580;2022-09-01T03:07:37;14.40;99.90
5248;DHT22;2644;52.420;13.580;2022-09-01T03:08:40;14.40;99.90
5248;DHT22;2644;52.420;13.580;2022-09-01T03:09:43;14.40;99.90
5248;DHT22;2644;52.420;13.580;2022-09-01T03:10:45;14.30;99.90
5248;DHT22;2644;52.420;13.580;2022-09-01T03:11:51;14.30;99.90
5248;DHT22;2644;52.420;13.580;2022-09-01T03:12:54;14.30;99.90
5248;DHT22;2644;52.420;13.580;2022-09-01T03:13:57;14.30;99.90
5248;DHT22;2644;52.420;13.580;2022-09-01T03:15:02;14.30;99.90
5248;DHT22;2644;52.420;13.580;2022-09-01T03:16:04;14.30;99.90
5248;DHT22;2644;52.420;13.580;2022-09-01T03:17:08;14.20;99.90
5248;DHT22;2644;52.420;13.580;2022-09-01T03:18:13;14.20;99.90
5248;DHT22;2644;52.420;13.580;2022-09-01T03:19:17;14.20;99.90
5248;DHT22;2644;52.420;13.580;2022-09-01T03:20:20;14.20;99.90
5248;DHT22;2644;52.420;13.580;2022-09-01T03:21:23;14.10;99.90
5248;DHT22;2644;52.420;13.580;2022-09-01T03:22:26;14.10;99.90
5248;DHT22;2644;52.420;13.580;2022-09-01T03:23:30;14.10;99.90
5248;DHT22;2644;52.420;13.580;2022-09-01T03:24:32;14.10;99.90
5248;DHT22;2644;52.420;13.580;2022-09-01T03:25:36;14.10;99.90
5248;DHT22;2644;52.420;13.580;2022-09-01T03:26:45;14.10;99.90
5248;DHT22;2644;52.420;13.580;2022-09-01T03:27:53;14.00;99.90
5248;DHT22;2644;52.420;13.580;2022-09-01T03:28:55;14.00;99.90
5248;DHT22;2644;52.420;13.580;2022-09-01T03:29:59;13.90;99.90
5248;DHT22;2644;52.420;13.580;2022-09-01T03:31:01;13.90;99.90
5248;DHT22;2644;52.420;13.580;2022-09-01T03:32:05;13.90;99.90
5248;DHT22;2644;52.420;13.580;2022-09-01T03:33:08;13.90;99.90
5248;DHT22;2644;52.420;13.580;2022-09-01T03:34:11;13.90;99.90
5248;DHT22;2644;52.420;13.580;2022-09-01T03:35:20;13.90;99.90
5248;DHT22;2644;52.420;13.580;2022-09-01T03:36:23;13.80;99.90
5248;DHT22;2644;52.420;13.580;2022-09-01T03:37:26;13.80;99.90
5248;DHT22;2644;52.420;13.580;2022-09-01T03:38:29;13.80;99.90
5248;DHT22;2644;52.420;13.580;2022-09-01T03:39:32;13.80;99.90
5248;DHT22;2644;52.420;13.580;2022-09-01T03:40:35;13.70;99.90
5248;DHT22;2644;52.420;13.580;2022-09-01T03:41:38;13.70;99.90
5248;DHT22;2644;52.420;13.580;2022-09-01T03:42:41;13.60;99.90
5248;DHT22;2644;52.420;13.580;2022-09-01T03:43:47;13.60;99.90
5248;DHT22;2644;52.420;13.580;2022-09-01T03:44:49;13.60;99.90
5248;DHT22;2644;52.420;13.580;2022-09-01T03:45:53;13.60;99.90
5248;DHT22;2644;52.420;13.580;2022-09-01T03:46:56;13.70;99.90
5248;DHT22;2644;52.420;13.580;2022-09-01T03:48:03;13.60;99.90
5248;DHT22;2644;52.420;13.580;2022-09-01T03:49:09;13.60;99.90
5248;DHT22;2644;52.420;13.580;2022-09-01T03:50:20;13.50;99.90
5248;DHT22;2644;52.420;13.580;2022-09-01T03:51:24;13.50;99.90
5248;DHT22;2644;52.420;13.580;2022-09-01T03:52:29;13.50;99.90
5248;DHT22;2644;52.420;13.580;2022-09-01T03:53:33;13.50;99.90
5248;DHT22;2644;52.420;13.580;2022-09-01T03:54:39;13.40;99.90
5248;DHT22;2644;52.420;13.580;2022-09-01T03:55:44;13.40;99.90
5248;DHT22;2644;52.420;13.580;2022-09-01T03:56:47;13.30;99.90
5248;DHT22;2644;52.420;13.580;2022-09-01T03:57:53;13.30;99.90
5248;DHT22;2644;52.420;13.580;2022-09-01T03:58:59;13.30;99.90
5248;DHT22;2644;52.420;13.580;2022-09-01T04:00:02;13.30;99.90
5248;DHT22;2644;52.420;13.580;2022-09-01T04:01:15;13.30;99.90
5248;DHT22;2644;52.420;13.580;2022-09-01T04:02:19;13.20;99.90
5248;DHT22;2644;52.420;13.580;2022-09-01T04:03:23;13.20;99.90
5248;DHT22;2644;52.420;13.580;2022-09-01T04:04:29;13.20;99.90
5248;DHT22;2644;52.420;13.580;2022-09-01T04:05:36;13.10;99.90
5248;DHT22;2644;52.420;13.580;2022-09-01T04:06:40;13.10;99.90
5248;DHT22;2644;52.420;13.580;2022-09-01T04:07:42;13.10;99.90
5248;DHT22;2644;52.420;13.580;2022-09-01T04:08:47;13.10;99.90
5248;DHT22;2644;52.420;13.580;2022-09-01T04:09:49;13.10;99.90
5248;DHT22;2644;52.420;13.580;2022-09-01T04:10:53;13.10;99.90
5248;DHT22;2644;52.420;13.580;2022-09-01T04:11:56;13.10;99.90
5248;DHT22;2644;52.420;13.580;2022-09-01T04:13:00;13.10;99.90
5248;DHT22;2644;52.420;13.580;2022-09-01T04:14:03;13.10;99.90
5248;DHT22;2644;52.420;13.580;2022-09-01T04:15:11;13.10;99.90
5248;DHT22;2644;52.420;13.580;2022-09-01T04:16:19;13.10;99.90
5248;DHT22;2644;52.420;13.580;2022-09-01T04:17:41;13.00;99.90
5248;DHT22;2644;52.420;13.580;2022-09-01T04:19:02;13.00;99.90
5248;DHT22;2644;52.420;13.580;2022-09-01T04:20:18;13.00;99.90
5248;DHT22;2644;52.420;13.580;2022-09-01T04:21:22;13.00;99.90
5248;DHT22;2644;52.420;13.580;2022-09-01T04:22:25;13.00;99.90
5248;DHT22;2644;52.420;13.580;2022-09-01T04:23:34;13.00;99.90
5248;DHT22;2644;52.420;13.580;2022-09-01T04:24:41;13.00;99.90
5248;DHT22;2644;52.420;13.580;2022-09-01T04:25:47;12.90;99.90
5248;DHT22;2644;52.420;13.580;2022-09-01T04:26:52;12.90;99.90
5248;DHT22;2644;52.420;13.580;2022-09-01T04:27:55;12.90;99.90
5248;DHT22;2644;52.420;13.580;2022-09-01T04:29:00;12.80;99.90
5248;DHT22;2644;52.420;13.580;2022-09-01T04:30:05;12.70;99.90
5248;DHT22;2644;52.420;13.580;2022-09-01T04:31:13;12.70;99.90
5248;DHT22;2644;52.420;13.580;2022-09-01T04:32:21;12.70;99.90
5248;DHT22;2644;52.420;13.580;2022-09-01T04:33:28;12.70;99.90
5248;DHT22;2644;52.420;13.580;2022-09-01T04:34:37;12.70;99.90
5248;DHT22;2644;52.420;13.580;2022-09-01T04:35:42;12.70;99.90
5248;DHT22;2644;52.420;13.580;2022-09-01T04:36:45;12.70;99.90
5248;DHT22;2644;52.420;13.580;2022-09-01T04:37:51;12.70;99.90
5248;DHT22;2644;52.420;13.580;2022-09-01T04:38:57;12.70;99.90
5248;DHT22;2644;52.420;13.580;2022-09-01T04:40:00;12.70;99.90
5248;DHT22;2644;52.420;13.580;2022-09-01T04:41:05;12.70;99.90
5248;DHT22;2644;52.420;13.580;2022-09-01T04:42:08;12.70;99.90
5248;DHT22;2644;52.420;13.580;2022-09-01T04:43:12;12.70;99.90
5248;DHT22;2644;52.420;13.580;2022-09-01T04:44:14;12.60;99.90
5248;DHT22;2644;52.420;13.580;2022-09-01T04:45:19;12.70;99.90
5248;DHT22;2644;52.420;13.580;2022-09-01T04:46:24;12.70;99.90
5248;DHT22;2644;52.420;13.580;2022-09-01T04:47:29;12.70;99.90
5248;DHT22;2644;52.420;13.580;2022-09-01T04:48:37;12.70;99.90
5248;DHT22;2644;52.420;13.580;2022-09-01T04:49:47;12.70;99.90
5248;DHT22;2644;52.420;13.580;2022-09-01T04:50:49;12.60;99.90
5248;DHT22;2644;52.420;13.580;2022-09-01T04:52:05;12.60;99.90
5248;DHT22;2644;52.420;13.580;2022-09-01T04:53:07;12.70;99.90
5248;DHT22;2644;52.420;13.580;2022-09-01T04:54:16;12.70;99.90
5248;DHT22;2644;52.420;13.580;2022-09-01T04:55:19;12.60;99.90
5248;DHT22;2644;52.420;13.580;2022-09-01T04:56:24;12.60;99.90
5248;DHT22;2644;52.420;13.580;2022-09-01T04:57:42;12.60;99.90
5248;DHT22;2644;52.420;13.580;2022-09-01T04:58:48;12.70;99.90
5248;DHT22;2644;52.420;13.580;2022-09-01T04:59:51;12.70;99.90
5248;DHT22;2644;52.420;13.580;2022-09-01T05:00:59;12.70;99.90
5248;DHT22;2644;52.420;13.580;2022-09-01T05:02:04;12.80;99.90
5248;DHT22;2644;52.420;13.580;2022-09-01T05:03:10;12.80;99.90
5248;DHT22;2644;52.420;13.580;2022-09-01T05:04:27;12.80;99.90
5248;DHT22;2644;52.420;13.580;2022-09-01T05:05:37;12.80;99.90
5248;DHT22;2644;52.420;13.580;2022-09-01T05:06:46;12.80;99.90
5248;DHT22;2644;52.420;13.580;2022-09-01T05:07:51;12.70;99.90
5248;DHT22;2644;52.420;13.580;2022-09-01T05:08:56;12.70;99.90
5248;DHT22;2644;52.420;13.580;2022-09-01T05:10:38;12.70;99.90
5248;DHT22;2644;52.420;13.580;2022-09-01T05:11:55;12.70;99.90
5248;DHT22;2644;52.420;13.580;2022-09-01T05:13:03;12.80;99.90
5248;DHT22;2644;52.420;13.580;2022-09-01T05:14:11;12.70;99.90
5248;DHT22;2644;52.420;13.580;2022-09-01T05:15:15;12.70;99.90
5248;DHT22;2644;52.420;13.580;2022-09-01T05:16:19;12.60;99.90
5248;DHT22;2644;52.420;13.580;2022-09-01T05:17:28;12.70;99.90
5248;DHT22;2644;52.420;13.580;2022-09-01T05:18:31;12.80;99.90
5248;DHT22;2644;52.420;13.580;2022-09-01T05:19:35;12.80;99.90
5248;DHT22;2644;52.420;13.580;2022-09-01T05:20:39;12.80;99.90
5248;DHT22;2644;52.420;13.580;2022-09-01T05:21:44;12.90;99.90
5248;DHT22;2644;52.420;13.580;2022-09-01T05:22:47;12.90;99.90
5248;DHT22;2644;52.420;13.580;2022-09-01T05:23:50;12.90;99.90
5248;DHT22;2644;52.420;13.580;2022-09-01T05:24:57;13.00;99.90
5248;DHT22;2644;52.420;13.580;2022-09-01T05:26:01;13.00;99.90
5248;DHT22;2644;52.420;13.580;2022-09-01T05:27:15;13.00;99.90
5248;DHT22;2644;52.420;13.580;2022-09-01T05:28:20;13.00;99.90
5248;DHT22;2644;52.420;13.580;2022-09-01T05:29:27;13.00;99.90
5248;DHT22;2644;52.420;13.580;2022-09-01T05:30:32;13.00;99.90
5248;DHT22;2644;52.420;13.580;2022-09-01T05:31:39;13.00;99.90
5248;DHT22;2644;52.420;13.580;2022-09-01T05:32:43;13.00;99.90
5248;DHT22;2644;52.420;13.580;2022-09-01T05:33:49;13.00;99.90
5248;DHT22;2644;52.420;13.580;2022-09-01T05:34:52;13.00;99.90
5248;DHT22;2644;52.420;13.580;2022-09-01T05:35:56;13.00;99.90
5248;DHT22;2644;52.420;13.580;2022-09-01T05:37:02;13.00;99.90
5248;DHT22;2644;52.420;13.580;2022-09-01T05:38:04;13.00;99.90
5248;DHT22;2644;52.420;13.580;2022-09-01T05:39:11;13.10;99.90
5248;DHT22;2644;52.420;13.580;2022-09-01T05:40:14;13.10;99.90
5248;DHT22;2644;52.420;13.580;2022-09-01T05:41:20;13.20;99.90
5248;DHT22;2644;52.420;13.580;2022-09-01T05:42:25;13.20;99.90
5248;DHT22;2644;52.420;13.580;2022-09-01T05:43:30;13.20;99.90
5248;DHT22;2644;52.420;13.580;2022-09-01T05:44:33;13.20;99.90
5248;DHT22;2644;52.420;13.580;2022-09-01T05:45:39;13.20;99.90
5248;DHT22;2644;52.420;13.580;2022-09-01T05:47:06;13.20;99.90
5248;DHT22;2644;52.420;13.580;2022-09-01T05:48:15;13.30;99.90
5248;DHT22;2644;52.420;13.580;2022-09-01T05:49:24;13.30;99.90
5248;DHT22;2644;52.420;13.580;2022-09-01T05:50:29;13.30;99.90
5248;DHT22;2644;52.420;13.580;2022-09-01T05:51:33;13.30;99.90
5248;DHT22;2644;52.420;13.580;2022-09-01T05:52:47;13.40;99.90
5248;DHT22;2644;52.420;13.580;2022-09-01T05:53:52;13.50;99.90
5248;DHT22;2644;52.420;13.580;2022-09-01T05:55:00;13.50;99.90
5248;DHT22;2644;52.420;13.580;2022-09-01T05:56:06;13.50;99.90
5248;DHT22;2644;52.420;13.580;2022-09-01T05:57:10;13.50;99.90
5248;DHT22;2644;52.420;13.580;2022-09-01T05:58:35;13.60;99.90
5248;DHT22;2644;52.420;13.580;2022-09-01T05:59:59;13.60;99.90
5248;DHT22;2644;52.420;13.580;2022-09-01T06:01:03;13.60;99.90
5248;DHT22;2644;52.420;13.580;2022-09-01T06:02:08;13.70;99.90
5248;DHT22;2644;52.420;13.580;2022-09-01T06:03:12;13.80;99.90
5248;DHT22;2644;52.420;13.580;2022-09-01T06:04:17;13.80;99.90
5248;DHT22;2644;52.420;13.580;2022-09-01T06:05:20;13.90;99.90
5248;DHT22;2644;52.420;13.580;2022-09-01T06:06:28;13.90;99.90
5248;DHT22;2644;52.420;13.580;2022-09-01T06:07:51;14.00;99.90
5248;DHT22;2644;52.420;13.580;2022-09-01T06:08:57;14.00;99.90
5248;DHT22;2644;52.420;13.580;2022-09-01T06:10:01;14.10;99.90
5248;DHT22;2644;52.420;13.580;2022-09-01T06:11:04;14.10;99.90
5248;DHT22;2644;52.420;13.580;2022-09-01T06:12:14;14.20;99.90
5248;DHT22;2644;52.420;13.580;2022-09-01T06:13:26;14.20;99.90
5248;DHT22;2644;52.420;13.580;2022-09-01T06:14:31;14.20;99.90
5248;DHT22;2644;52.420;13.580;2022-09-01T06:15:35;14.30;99.90
5248;DHT22;2644;52.420;13.580;2022-09-01T06:16:40;14.30;99.90
5248;DHT22;2644;52.420;13.580;2022-09-01T06:17:45;14.40;99.90
5248;DHT22;2644;52.420;13.580;2022-09-01T06:18:49;14.40;99.90
5248;DHT22;2644;52.420;13.580;2022-09-01T06:19:56;14.40;99.90
5248;DHT22;2644;52.420;13.580;2022-09-01T06:21:02;14.40;99.90
5248;DHT22;2644;52.420;13.580;2022-09-01T06:22:05;14.40;99.90
5248;DHT22;2644;52.420;13.580;2022-09-01T06:23:08;14.50;99.90
5248;DHT22;2644;52.420;13.580;2022-09-01T06:24:13;14.50;99.90
5248;DHT22;2644;52.420;13.580;2022-09-01T06:25:16;14.60;99.90
5248;DHT22;2644;52.420;13.580;2022-09-01T06:26:21;14.70;99.90
5248;DHT22;2644;52.420;13.580;2022-09-01T06:27:30;14.80;99.90
5248;DHT22;2644;52.420;13.580;2022-09-01T06:28:33;15.00;99.90
5248;DHT22;2644;52.420;13.580;2022-09-01T06:29:40;15.10;99.90
5248;DHT22;2644;52.420;13.580;2022-09-01T06:30:42;15.40;99.90
5248;DHT22;2644;52.420;13.580;2022-09-01T06:31:47;15.60;99.90
5248;DHT22;2644;52.420;13.580;2022-09-01T06:32:55;16.00;99.90
5248;DHT22;2644;52.420;13.580;2022-09-01T06:34:00;16.40;99.90
5248;DHT22;2644;52.420;13.580;2022-09-01T06:35:05;16.80;99.90
5248;DHT22;2644;52.420;13.580;2022-09-01T06:36:10;17.10;99.90
5248;DHT22;2644;52.420;13.580;2022-09-01T06:37:12;17.50;99.90
5248;DHT22;2644;52.420;13.580;2022-09-01T06:38:18;17.90;99.90
5248;DHT22;2644;52.420;13.580;2022-09-01T06:39:22;18.20;99.90
5248;DHT22;2644;52.420;13.580;2022-09-01T06:40:28;18.50;99.90
5248;DHT22;2644;52.420;13.580;2022-09-01T06:41:30;18.80;99.90
5248;DHT22;2644;52.420;13.580;2022-09-01T06:42:37;19.00;99.90
5248;DHT22;2644;52.420;13.580;2022-09-01T06:43:42;19.40;99.90
5248;DHT22;2644;52.420;13.580;2022-09-01T06:44:44;19.40;99.90
5248;DHT22;2644;52.420;13.580;2022-09-01T06:45:47;19.70;99.90
5248;DHT22;2644;52.420;13.580;2022-09-01T06:46:57;19.90;99.90
5248;DHT22;2644;52.420;13.580;2022-09-01T06:48:03;20.10;99.90
5248;DHT22;2644;52.420;13.580;2022-09-01T06:49:05;20.30;99.90
5248;DHT22;2644;52.420;13.580;2022-09-01T06:50:14;20.50;99.90
5248;DHT22;2644;52.420;13.580;2022-09-01T06:51:36;20.50;99.90
5248;DHT22;2644;52.420;13.580;2022-09-01T06:52:40;20.40;99.90
5248;DHT22;2644;52.420;13.580;2022-09-01T06:54:03;20.70;99.90
5248;DHT22;2644;52.420;13.580;2022-09-01T06:55:16;20.70;98.60
5248;DHT22;2644;52.420;13.580;2022-09-01T06:56:19;20.70;98.50
5248;DHT22;2644;52.420;13.580;2022-09-01T06:57:22;20.80;98.90
5248;DHT22;2644;52.420;13.580;2022-09-01T06:58:47;20.70;98.70
5248;DHT22;2644;52.420;13.580;2022-09-01T06:59:51;20.90;98.40
5248;DHT22;2644;52.420;13.580;2022-09-01T07:00:55;21.10;98.60
5248;DHT22;2644;52.420;13.580;2022-09-01T07:01:58;21.40;97.40